Michurinsk, Russia
Current Conditions -  °F | °C
As of 5:00 AM on Thursday 23 Oct 2014 (Local Time) from UUOO Reporting Station
Broken Clouds Broken Clouds  
Wind Chill: 19°   Ceiling: 2200
Heat Index: 25°   Visibility: 6mi
Dew Point: 16°   Wind: 4mph
Humidity: 69%   Direction: 330°NNW
Pressure: 30.09"   Gusts: NA
Location:  52.9°N, 40.5°E
Report Text: UUOO 230200Z 33002MPS 9999 BKN022 M04/M09 Q1019 NOSIG RMK 30090070
Loading
Personal Weather Stations






























Interactive Weather Map
Tropical Storm Tracking
New forecast layout! Learn more

10-Day Weather Forecast

Advertisements
Track Severe Weather on mobile